Time;durP1;ratioP1;P1;durP2;ratioP2;P2;SDS_P1;SDS_P2;PMS_P1;PMS_P2;Temp;Humidity;BMP_temperature;BMP_pressure;BME280_temperature;BME280_humidity;BME280_pressure;Samples;Min_cycle;Max_cycle;Signal;HPM_P1;HPM_P2
2022/01/07 00:00:58;;;;;;;;;;;;;;;;;;5026808;28;19933;-96
2022/01/07 00:03:24;;;;;;;;;;;;;;;;;;5026528;28;19933;-95
2022/01/07 00:05:50;;;;;;;;;;;;;;;;;;5026176;28;19926;-95
2022/01/07 00:08:16;;;;;;;;;;;;;;;;;;5008818;28;19925;-95
2022/01/07 00:10:43;;;;;;;;;;;;;;;;;;5026563;28;19978;-96
2022/01/07 00:13:09;;;;;;;;;;;;;;;;;;5026881;28;19925;-96
2022/01/07 00:15:35;;;;;;;;;;;;;;;;;;5027212;28;19929;-96
2022/01/07 00:18:02;;;;;;;;;;;;;;;;;;5027142;28;19949;-96
2022/01/07 00:20:28;;;;;;;;;;;;;;;;;;5026710;28;19925;-96
2022/01/07 00:22:54;;;;;;;;;;;;;;;;;;5027481;28;20333;-96
2022/01/07 00:25:22;;;;;;;;;;;;;;;;;;5028891;28;19925;-96
2022/01/07 00:27:48;;;;;;;;;;;;;;;;;;5028796;28;20292;-96
2022/01/07 00:30:15;;;;;;;;;;;;;;;;;;5026920;28;19925;-96
2022/01/07 00:32:41;;;;;;;;;;;;;;;;;;5025879;28;19926;-95
2022/01/07 00:35:07;;;;;;;;;;;;;;;;;;5026054;28;19925;-96
2022/01/07 00:37:34;;;;;;;;;;;;;;;;;;5026060;28;19925;-96
2022/01/07 00:40:00;;;;;;;;;;;;;;;;;;5025994;28;19925;-95
2022/01/07 00:42:26;;;;;;;;;;;;;;;;;;5026541;28;19926;-96
2022/01/07 00:44:52;;;;;;;;;;;;;;;;;;5026459;28;19949;-95
2022/01/07 00:47:19;;;;;;;;;;;;;;;;;;5026809;28;19980;-96
2022/01/07 00:49:45;;;;;;;;;;;;;;;;;;5026346;28;19933;-96
2022/01/07 00:52:11;;;;;;;;;;;;;;;;;;5025879;28;19925;-96
2022/01/07 00:54:37;;;;;;;;;;;;;;;;;;5026486;28;19926;-95
2022/01/07 00:57:04;;;;;;;;;;;;;;;;;;5025518;28;19957;-96
2022/01/07 00:59:30;;;;;;;;;;;;;;;;;;5038791;28;19925;-96
2022/01/07 01:01:56;;;;;;;;;;;;;;;;;;5036399;28;19926;-96
2022/01/07 01:04:23;;;;;;;;;;;;;;;;;;5000718;28;19937;-96
2022/01/07 01:06:56;;;;;;;;;;;;;;;;;;5014687;28;19930;-96
2022/01/07 01:09:23;;;;;;;;;;;;;;;;;;5027084;28;19989;-96
2022/01/07 01:11:50;;;;;;;;;;;;;;;;;;5028664;28;19926;-95
2022/01/07 01:14:17;;;;;;;;;;;;;;;;;;5010124;28;20294;-96
2022/01/07 01:16:44;;;;;;;;;;;;;;;;;;5044408;28;19955;-95
2022/01/07 01:19:10;;;;;;;;;;;;;;;;;;5045177;28;20373;-95
2022/01/07 01:21:37;;;;;;;;;;;;;;;;;;5045326;28;20336;-95
2022/01/07 01:24:03;;;;;;;;;;;;;;;;;;5014818;28;19972;-96
2022/01/07 01:26:29;;;;;;;;;;;;;;;;;;5025705;28;19925;-96
2022/01/07 01:28:56;;;;;;;;;;;;;;;;;;5025025;28;19932;-96
2022/01/07 01:31:22;;;;;;;;;;;;;;;;;;5028785;28;20615;-96
2022/01/07 01:33:49;;;;;;;;;;;;;;;;;;5039095;28;19937;-96
2022/01/07 01:36:15;;;;;;;;;;;;;;;;;;5026929;28;20532;-96
2022/01/07 01:38:41;;;;;;;;;;;;;;;;;;5027056;28;19948;-96
2022/01/07 01:41:08;;;;;;;;;;;;;;;;;;5025294;28;19932;-95
2022/01/07 01:43:34;;;;;;;;;;;;;;;;;;5024325;28;19926;-96
2022/01/07 01:46:00;;;;;;;;;;;;;;;;;;5006454;28;19926;-96
2022/01/07 01:48:27;;;;;;;;;;;;;;;;;;5029166;28;19987;-96
2022/01/07 01:50:53;;;;;;;;;;;;;;;;;;5044700;28;19937;-96
2022/01/07 01:53:19;;;;;;;;;;;;;;;;;;5042413;28;19947;-96
2022/01/07 01:55:45;;;;;;;;;;;;;;;;;;5025271;28;19936;-96
2022/01/07 01:58:12;;;;;;;;;;;;;;;;;;5025435;28;19925;-95
2022/01/07 02:00:38;;;;;;;;;;;;;;;;;;5024628;28;19927;-96
2022/01/07 02:03:04;;;;;;;;;;;;;;;;;;5026785;28;19936;-96
2022/01/07 02:05:31;;;;;;;;;;;;;;;;;;5024770;28;19955;-96
2022/01/07 02:07:57;;;;;;;;;;;;;;;;;;5023912;28;19926;-96
2022/01/07 02:10:23;;;;;;;;;;;;;;;;;;5024655;28;19940;-95
2022/01/07 02:12:50;;;;;;;;;;;;;;;;;;5024310;28;20025;-96
2022/01/07 02:15:16;;;;;;;;;;;;;;;;;;5043433;28;19951;-95
2022/01/07 02:17:42;;;;;;;;;;;;;;;;;;5045060;28;19925;-95
2022/01/07 02:20:08;;;;;;;;;;;;;;;;;;5044501;28;20331;-96
2022/01/07 02:22:35;;;;;;;;;;;;;;;;;;5044494;28;19925;-95
2022/01/07 02:25:01;;;;;;;;;;;;;;;;;;5029272;28;19925;-96
2022/01/07 02:27:28;;;;;;;;;;;;;;;;;;5024932;28;19926;-95
2022/01/07 02:29:55;;;;;;;;;;;;;;;;;;5024439;28;19926;-95
2022/01/07 02:32:21;;;;;;;;;;;;;;;;;;5022703;28;19997;-95
2022/01/07 02:34:48;;;;;;;;;;;;;;;;;;5022429;28;19933;-96
2022/01/07 02:37:14;;;;;;;;;;;;;;;;;;5023106;28;19926;-96
2022/01/07 02:39:40;;;;;;;;;;;;;;;;;;5023357;28;19932;-96
2022/01/07 02:42:06;;;;;;;;;;;;;;;;;;5024075;28;20480;-95
2022/01/07 02:44:33;;;;;;;;;;;;;;;;;;5023379;28;19980;-95
2022/01/07 02:46:59;;;;;;;;;;;;;;;;;;5023250;28;19930;-96
2022/01/07 02:49:25;;;;;;;;;;;;;;;;;;5024238;28;19929;-94
2022/01/07 02:51:51;;;;;;;;;;;;;;;;;;5024202;28;19948;-95
2022/01/07 02:54:18;;;;;;;;;;;;;;;;;;5023198;28;19953;-95
2022/01/07 02:56:44;;;;;;;;;;;;;;;;;;5022780;28;19932;-96
2022/01/07 02:59:10;;;;;;;;;;;;;;;;;;5025272;28;19925;-94
2022/01/07 03:01:37;;;;;;;;;;;;;;;;;;5043029;28;19929;-96
2022/01/07 03:04:03;;;;;;;;;;;;;;;;;;5043718;28;19948;-95
2022/01/07 03:06:29;;;;;;;;;;;;;;;;;;5043379;28;19925;-95
2022/01/07 03:08:55;;;;;;;;;;;;;;;;;;5041854;28;19929;-95
2022/01/07 03:11:22;;;;;;;;;;;;;;;;;;5043540;28;19971;-95
2022/01/07 03:13:48;;;;;;;;;;;;;;;;;;5043153;28;19925;-96
2022/01/07 03:16:14;;;;;;;;;;;;;;;;;;5043172;28;19925;-96
2022/01/07 03:18:40;;;;;;;;;;;;;;;;;;5042925;28;19925;-96
2022/01/07 03:21:07;;;;;;;;;;;;;;;;;;5043357;28;19952;-95
2022/01/07 03:23:33;;;;;;;;;;;;;;;;;;5041117;28;20410;-95
2022/01/07 03:25:59;;;;;;;;;;;;;;;;;;5042540;28;20355;-96
2022/01/07 03:28:25;;;;;;;;;;;;;;;;;;5042295;28;19925;-96
2022/01/07 03:30:52;;;;;;;;;;;;;;;;;;5042332;28;19987;-95
2022/01/07 03:33:19;;;;;;;;;;;;;;;;;;5042760;28;19940;-96
2022/01/07 03:35:45;;;;;;;;;;;;;;;;;;5042995;28;19952;-95
2022/01/07 03:38:12;;;;;;;;;;;;;;;;;;5041244;28;20474;-95
2022/01/07 03:40:38;;;;;;;;;;;;;;;;;;5041216;28;19948;-96
2022/01/07 03:43:04;;;;;;;;;;;;;;;;;;5043161;28;19925;-95
2022/01/07 03:45:31;;;;;;;;;;;;;;;;;;5042900;28;19947;-95
2022/01/07 03:47:57;;;;;;;;;;;;;;;;;;5042926;28;19929;-95
2022/01/07 03:50:23;;;;;;;;;;;;;;;;;;5041442;28;19925;-94
2022/01/07 03:52:49;;;;;;;;;;;;;;;;;;5042632;28;19987;-94
2022/01/07 03:55:16;;;;;;;;;;;;;;;;;;5039354;28;19929;-96
2022/01/07 03:57:42;;;;;;;;;;;;;;;;;;5042764;28;19925;-95
2022/01/07 04:00:08;;;;;;;;;;;;;;;;;;5040714;28;19925;-95
2022/01/07 04:02:34;;;;;;;;;;;;;;;;;;5041475;28;19925;-95
2022/01/07 04:05:01;;;;;;;;;;;;;;;;;;5029698;28;19948;-95
2022/01/07 04:07:30;;;;;;;;;;;;;;;;;;5022691;28;19932;-95
2022/01/07 04:09:57;;;;;;;;;;;;;;;;;;5025227;28;19930;-96
2022/01/07 04:12:23;;;;;;;;;;;;;;;;;;5025917;28;19925;-96
2022/01/07 04:14:55;;;;;;;;;;;;;;;;;;5024521;28;19925;-96
2022/01/07 04:17:22;;;;;;;;;;;;;;;;;;5024817;28;19925;-96
2022/01/07 04:19:48;;;;;;;;;;;;;;;;;;5024053;28;19953;-95
2022/01/07 04:22:14;;;;;;;;;;;;;;;;;;5024545;28;19925;-96
2022/01/07 04:24:40;;;;;;;;;;;;;;;;;;5018610;28;19926;-96
2022/01/07 04:27:07;;;;;;;;;;;;;;;;;;5007431;28;19975;-95
2022/01/07 04:29:33;;;;;;;;;;;;;;;;;;5012743;28;19932;-96
2022/01/07 04:32:01;;;;;;;;;;;;;;;;;;5026027;28;19972;-96
2022/01/07 04:34:27;;;;;;;;;;;;;;;;;;5030660;28;19936;-96
2022/01/07 04:36:54;;;;;;;;;;;;;;;;;;5026620;28;19925;-96
2022/01/07 04:39:20;;;;;;;;;;;;;;;;;;5025082;28;19929;-96
2022/01/07 04:41:46;;;;;;;;;;;;;;;;;;5026697;28;19925;-96
2022/01/07 04:44:13;;;;;;;;;;;;;;;;;;5025224;28;19932;-96
2022/01/07 04:46:39;;;;;;;;;;;;;;;;;;5026131;28;20019;-96
2022/01/07 04:49:05;;;;;;;;;;;;;;;;;;5025222;28;19925;-95
2022/01/07 04:51:32;;;;;;;;;;;;;;;;;;5024745;28;19948;-96
2022/01/07 04:53:58;;;;;;;;;;;;;;;;;;5025739;28;20009;-95
2022/01/07 04:56:24;;;;;;;;;;;;;;;;;;5025154;28;19930;-96
2022/01/07 04:58:51;;;;;;;;;;;;;;;;;;5026127;28;19957;-96
2022/01/07 05:01:17;;;;;;;;;;;;;;;;;;5025398;28;19954;-96
2022/01/07 05:03:43;;;;;;;;;;;;;;;;;;5025509;28;19956;-96
2022/01/07 05:06:36;;;;;;;;;;;;;;;;;;5034769;28;19929;-96
2022/01/07 05:08:58;;;;;;;;;;;;;;;;;;5037803;28;19926;-96
2022/01/07 05:11:24;;;;;;;;;;;;;;;;;;5036523;28;19948;-96
2022/01/07 05:13:50;;;;;;;;;;;;;;;;;;5045493;28;19925;-95
2022/01/07 05:16:17;;;;;;;;;;;;;;;;;;5044688;28;19951;-96
2022/01/07 05:18:43;;;;;;;;;;;;;;;;;;5045207;28;19983;-96
2022/01/07 05:21:09;;;;;;;;;;;;;;;;;;5045361;28;19952;-96
2022/01/07 05:23:36;;;;;;;;;;;;;;;;;;5040948;28;19957;-96
2022/01/07 05:26:03;;;;;;;;;;;;;;;;;;5018266;28;19925;-95
2022/01/07 05:28:29;;;;;;;;;;;;;;;;;;5025289;28;19971;-96
2022/01/07 05:30:55;;;;;;;;;;;;;;;;;;5024442;28;19929;-95
2022/01/07 05:33:22;;;;;;;;;;;;;;;;;;5024179;28;19925;-94
2022/01/07 05:35:48;;;;;;;;;;;;;;;;;;5023075;28;19948;-96
2022/01/07 05:38:14;;;;;;;;;;;;;;;;;;5023890;28;19925;-96
2022/01/07 05:40:41;;;;;;;;;;;;;;;;;;5023459;28;19925;-96
2022/01/07 05:43:07;;;;;;;;;;;;;;;;;;5006344;28;19930;-95
2022/01/07 05:45:33;;;;;;;;;;;;;;;;;;5024203;28;19956;-95
2022/01/07 05:47:59;;;;;;;;;;;;;;;;;;5006843;28;19925;-94
2022/01/07 05:50:26;;;;;;;;;;;;;;;;;;5024844;28;19980;-94
2022/01/07 05:52:52;;;;;;;;;;;;;;;;;;5024724;28;19956;-95
2022/01/07 05:55:18;;;;;;;;;;;;;;;;;;5024395;28;19956;-95
2022/01/07 05:57:44;;;;;;;;;;;;;;;;;;5024467;28;19925;-96
2022/01/07 06:00:11;;;;;;;;;;;;;;;;;;5024149;28;19960;-96
2022/01/07 06:02:37;;;;;;;;;;;;;;;;;;5024768;28;19925;-95
2022/01/07 06:05:03;;;;;;;;;;;;;;;;;;5023312;28;19925;-94
2022/01/07 06:07:30;;;;;;;;;;;;;;;;;;5022581;28;19980;-96
2022/01/07 06:09:56;;;;;;;;;;;;;;;;;;5023878;28;19965;-95
2022/01/07 06:12:22;;;;;;;;;;;;;;;;;;5024121;28;19925;-96
2022/01/07 06:14:48;;;;;;;;;;;;;;;;;;5020302;28;19955;-96
2022/01/07 06:17:15;;;;;;;;;;;;;;;;;;5017736;28;19932;-96
2022/01/07 06:19:41;;;;;;;;;;;;;;;;;;5014866;28;19997;-96
2022/01/07 06:22:07;;;;;;;;;;;;;;;;;;5014684;28;19926;-95
2022/01/07 06:24:33;;;;;;;;;;;;;;;;;;5020134;28;19957;-95
2022/01/07 06:27:00;;;;;;;;;;;;;;;;;;5014913;28;20378;-95
2022/01/07 06:29:26;;;;;;;;;;;;;;;;;;5012540;28;19926;-95
2022/01/07 06:31:52;;;;;;;;;;;;;;;;;;5016255;28;19980;-96
2022/01/07 06:34:20;;;;;;;;;;;;;;;;;;5014494;28;19934;-96
2022/01/07 06:36:46;;;;;;;;;;;;;;;;;;5017961;28;20020;-94
2022/01/07 06:39:13;;;;;;;;;;;;;;;;;;5011975;28;19925;-96
2022/01/07 06:41:39;;;;;;;;;;;;;;;;;;5013380;28;19930;-94
2022/01/07 06:44:05;;;;;;;;;;;;;;;;;;5010653;28;19933;-96
2022/01/07 06:46:31;;;;;;;;;;;;;;;;;;5010084;28;19976;-95
2022/01/07 06:48:58;;;;;;;;;;;;;;;;;;5021037;28;19926;-95
2022/01/07 06:51:24;;;;;;;;;;;;;;;;;;5018854;28;19972;-96
2022/01/07 06:53:50;;;;;;;;;;;;;;;;;;5014016;28;19950;-96
2022/01/07 06:56:17;;;;;;;;;;;;;;;;;;5018026;28;19952;-95
2022/01/07 06:58:43;;;;;;;;;;;;;;;;;;5013056;28;20022;-96
2022/01/07 07:01:09;;;;;;;;;;;;;;;;;;5012413;28;19926;-96
2022/01/07 07:03:36;;;;;;;;;;;;;;;;;;4997689;28;19925;-95
2022/01/07 07:06:02;;;;;;;;;;;;;;;;;;5017115;28;20207;-96
2022/01/07 07:08:28;;;;;;;;;;;;;;;;;;5012999;28;19933;-92
2022/01/07 07:10:54;;;;;;;;;;;;;;;;;;5016552;28;19960;-95
2022/01/07 07:13:24;;;;;;;;;;;;;;;;;;5014956;28;19926;-96
2022/01/07 07:15:50;;;;;;;;;;;;;;;;;;5013919;28;20016;-93
2022/01/07 07:18:17;;;;;;;;;;;;;;;;;;5008620;28;19932;-93
2022/01/07 07:20:43;;;;;;;;;;;;;;;;;;5014923;28;19935;-93
2022/01/07 07:23:09;;;;;;;;;;;;;;;;;;5014319;28;19949;-95
2022/01/07 07:25:36;;;;;;;;;;;;;;;;;;5013747;28;19926;-94
2022/01/07 07:28:03;;;;;;;;;;;;;;;;;;5013119;28;19944;-96
2022/01/07 07:30:34;;;;;;;;;;;;;;;;;;5017626;28;19932;-94
2022/01/07 07:33:28;;;;;;;;;;;;;;;;;;5015500;28;19930;-96
2022/01/07 07:38:33;;;;;;;;;;;;;;;;;;5044303;28;19944;-95
2022/01/07 07:40:59;;;;;;;;;;;;;;;;;;5050774;28;19925;-94
2022/01/07 07:43:27;;;;;;;;;;;;;;;;;;5066797;28;20392;-96
2022/01/07 07:45:53;;;;;;;;;;;;;;;;;;5066001;28;19959;-95
2022/01/07 07:48:26;;;;;;;;;;;;;;;;;;5054742;28;19925;-96
2022/01/07 07:50:58;;;;;;;;;;;;;;;;;;5048121;23;19925;-95
2022/01/07 07:53:25;;;;;;;;;;;;;;;;;;5040368;28;19956;-95
2022/01/07 07:56:01;;;;;;;;;;;;;;;;;;5042807;28;19933;-96
2022/01/07 07:58:28;;;;;;;;;;;;;;;;;;5039596;28;19932;-94
2022/01/07 08:00:54;;;;;;;;;;;;;;;;;;5047455;28;19956;-94
2022/01/07 08:03:20;;;;;;;;;;;;;;;;;;5047320;28;19925;-95
2022/01/07 08:05:59;;;;;;;;;;;;;;;;;;5042357;28;19925;-96
2022/01/07 08:08:25;;;;;;;;;;;;;;;;;;5050520;28;19909;-94
2022/01/07 08:10:54;;;;;;;;;;;;;;;;;;5044006;28;19948;-94
2022/01/07 08:13:30;;;;;;;;;;;;;;;;;;5045237;28;20722;-95
2022/01/07 08:15:59;;;;;;;;;;;;;;;;;;5043008;28;19929;-94
2022/01/07 08:18:25;;;;;;;;;;;;;;;;;;5045210;28;20024;-94
2022/01/07 08:20:52;;;;;;;;;;;;;;;;;;5045261;28;19925;-96
2022/01/07 08:25:56;;;;;;;;;;;;;;;;;;5108083;22;19996;-96
2022/01/07 08:28:25;;;;;;;;;;;;;;;;;;5146750;22;20748;-92
2022/01/07 08:31:23;;;;;;;;;;;;;;;;;;5064907;28;19929;-94
2022/01/07 08:36:32;;;;;;;;;;;;;;;;;;5062970;28;19923;-94
2022/01/07 08:38:58;;;;;;;;;;;;;;;;;;5061875;28;19933;-94
2022/01/07 08:41:24;;;;;;;;;;;;;;;;;;5061353;28;19932;-94
2022/01/07 08:43:50;;;;;;;;;;;;;;;;;;5063699;28;19932;-93
2022/01/07 08:46:16;;;;;;;;;;;;;;;;;;5063208;28;19975;-94
2022/01/07 08:48:43;;;;;;;;;;;;;;;;;;5059984;28;19936;-93
2022/01/07 08:51:09;;;;;;;;;;;;;;;;;;5060048;28;19994;-94
2022/01/07 08:53:36;;;;;;;;;;;;;;;;;;5059472;28;19929;-92
2022/01/07 08:56:02;;;;;;;;;;;;;;;;;;5057927;28;19951;-94
2022/01/07 08:58:28;;;;;;;;;;;;;;;;;;5059577;28;19925;-95
2022/01/07 09:00:55;;;;;;;;;;;;;;;;;;5061955;28;19929;-96
2022/01/07 09:03:22;;;;;;;;;;;;;;;;;;5064446;28;19925;-93
2022/01/07 09:05:48;;;;;;;;;;;;;;;;;;5062241;28;20009;-92
2022/01/07 09:08:14;;;;;;;;;;;;;;;;;;5061138;28;19955;-96
2022/01/07 09:10:40;;;;;;;;;;;;;;;;;;5061225;28;19952;-95
2022/01/07 09:13:07;;;;;;;;;;;;;;;;;;5061568;28;19925;-93
2022/01/07 09:15:33;;;;;;;;;;;;;;;;;;5058692;28;19929;-94
2022/01/07 09:18:00;;;;;;;;;;;;;;;;;;5059491;28;19929;-95
2022/01/07 09:20:26;;;;;;;;;;;;;;;;;;5057797;28;19947;-94
2022/01/07 09:22:53;;;;;;;;;;;;;;;;;;5050935;28;19948;-93
2022/01/07 09:25:19;;;;;;;;;;;;;;;;;;5052856;28;19952;-93
2022/01/07 09:27:45;;;;;;;;;;;;;;;;;;5058404;28;19928;-91
2022/01/07 09:30:12;;;;;;;;;;;;;;;;;;5058562;28;19929;-94
2022/01/07 09:32:38;;;;;;;;;;;;;;;;;;5062583;28;19925;-96
2022/01/07 09:35:04;;;;;;;;;;;;;;;;;;5064274;28;19925;-95
2022/01/07 09:37:31;;;;;;;;;;;;;;;;;;5063733;28;20006;-93
2022/01/07 09:39:58;;;;;;;;;;;;;;;;;;5060571;28;19932;-92
2022/01/07 09:42:25;;;;;;;;;;;;;;;;;;5060517;28;19932;-91
2022/01/07 09:44:51;;;;;;;;;;;;;;;;;;5063664;28;19924;-92
2022/01/07 09:47:17;;;;;;;;;;;;;;;;;;5063157;28;19932;-94
2022/01/07 09:49:43;;;;;;;;;;;;;;;;;;5060594;28;19938;-93
2022/01/07 09:52:10;;;;;;;;;;;;;;;;;;5060544;28;19929;-92
2022/01/07 09:54:36;;;;;;;;;;;;;;;;;;5061327;28;19951;-92
2022/01/07 09:57:02;;;;;;;;;;;;;;;;;;5065632;28;19947;-96
2022/01/07 09:59:31;;;;;;;;;;;;;;;;;;5074833;22;19948;-96
2022/01/07 10:01:58;;;;;;;;;;;;;;;;;;5083768;23;19929;-93
2022/01/07 10:04:24;;;;;;;;;;;;;;;;;;5043510;28;19989;-96
2022/01/07 10:06:50;;;;;;;;;;;;;;;;;;5042588;28;19929;-95
2022/01/07 10:09:17;;;;;;;;;;;;;;;;;;5031796;28;19929;-94
2022/01/07 10:11:44;;;;;;;;;;;;;;;;;;5028589;28;19925;-92
2022/01/07 10:14:10;;;;;;;;;;;;;;;;;;5038522;28;19947;-95
2022/01/07 10:16:36;;;;;;;;;;;;;;;;;;5040872;28;19925;-93
2022/01/07 10:19:03;;;;;;;;;;;;;;;;;;5041298;28;19929;-95
2022/01/07 10:21:29;;;;;;;;;;;;;;;;;;5040802;28;19924;-93
2022/01/07 10:23:55;;;;;;;;;;;;;;;;;;5030103;28;19949;-91
2022/01/07 10:26:22;;;;;;;;;;;;;;;;;;5022601;28;19929;-95
2022/01/07 10:28:49;;;;;;;;;;;;;;;;;;5041442;28;19959;-94
2022/01/07 10:31:16;;;;;;;;;;;;;;;;;;5040591;28;19987;-93
2022/01/07 10:33:42;;;;;;;;;;;;;;;;;;5042029;28;19925;-93
2022/01/07 10:36:08;;;;;;;;;;;;;;;;;;5042666;28;19971;-93
2022/01/07 10:38:34;;;;;;;;;;;;;;;;;;5033187;28;19929;-93
2022/01/07 10:41:01;;;;;;;;;;;;;;;;;;5020503;28;19925;-95
2022/01/07 10:43:28;;;;;;;;;;;;;;;;;;5039603;28;19925;-95
2022/01/07 10:45:54;;;;;;;;;;;;;;;;;;5042247;28;19960;-94
2022/01/07 10:48:20;;;;;;;;;;;;;;;;;;5041967;28;19961;-94
2022/01/07 10:50:46;;;;;;;;;;;;;;;;;;5042236;28;19928;-93
2022/01/07 10:53:12;;;;;;;;;;;;;;;;;;5036564;28;19948;-92
2022/01/07 10:55:39;;;;;;;;;;;;;;;;;;5032762;28;19955;-94
2022/01/07 10:58:05;;;;;;;;;;;;;;;;;;5050814;28;19951;-95
2022/01/07 11:00:31;;;;;;;;;;;;;;;;;;5061533;28;20389;-94
2022/01/07 11:02:57;;;;;;;;;;;;;;;;;;5048632;28;20262;-93
2022/01/07 11:05:26;;;;;;;;;;;;;;;;;;5041237;28;19925;-95
2022/01/07 11:07:54;;;;;;;;;;;;;;;;;;5041817;28;19932;-95
2022/01/07 11:10:20;;;;;;;;;;;;;;;;;;5023808;28;19930;-94
2022/01/07 11:12:47;;;;;;;;;;;;;;;;;;5035472;28;19983;-94
2022/01/07 11:15:14;;;;;;;;;;;;;;;;;;5042682;28;19925;-92
2022/01/07 11:17:40;;;;;;;;;;;;;;;;;;5043265;28;19925;-93
2022/01/07 11:20:06;;;;;;;;;;;;;;;;;;5045076;28;19929;-94
2022/01/07 11:22:38;;;;;;;;;;;;;;;;;;5043755;28;19925;-95
2022/01/07 11:25:04;;;;;;;;;;;;;;;;;;5046334;28;20282;-94
2022/01/07 11:27:30;;;;;;;;;;;;;;;;;;5041162;28;19929;-96
2022/01/07 11:29:59;;;;;;;;;;;;;;;;;;5024013;28;19932;-95
2022/01/07 11:32:25;;;;;;;;;;;;;;;;;;5034200;28;19925;-93
2022/01/07 11:34:52;;;;;;;;;;;;;;;;;;5046863;28;19932;-96
2022/01/07 11:37:18;;;;;;;;;;;;;;;;;;5044334;28;19929;-94
2022/01/07 11:39:52;;;;;;;;;;;;;;;;;;5031968;28;19925;-96
2022/01/07 11:42:18;;;;;;;;;;;;;;;;;;5034298;28;19971;-94
2022/01/07 11:44:45;;;;;;;;;;;;;;;;;;5045467;28;19950;-95
2022/01/07 11:47:11;;;;;;;;;;;;;;;;;;5044490;28;19925;-96
2022/01/07 11:49:37;;;;;;;;;;;;;;;;;;5046338;28;19925;-93
2022/01/07 11:52:03;;;;;;;;;;;;;;;;;;5048536;28;19932;-95
2022/01/07 11:54:30;;;;;;;;;;;;;;;;;;5035772;28;19936;-95
2022/01/07 11:56:56;;;;;;;;;;;;;;;;;;5045985;28;20286;-96
2022/01/07 11:59:25;;;;;;;;;;;;;;;;;;5038532;28;19929;-94
2022/01/07 12:01:52;;;;;;;;;;;;;;;;;;5045531;28;20270;-93
2022/01/07 12:04:19;;;;;;;;;;;;;;;;;;5046159;28;20344;-93
2022/01/07 12:06:46;;;;;;;;;;;;;;;;;;5047242;28;19932;-95
2022/01/07 12:09:16;;;;;;;;;;;;;;;;;;5046895;28;19925;-94
2022/01/07 12:11:42;;;;;;;;;;;;;;;;;;5045297;28;19936;-94
2022/01/07 12:14:10;;;;;;;;;;;;;;;;;;5046483;28;20346;-95
2022/01/07 12:16:36;;;;;;;;;;;;;;;;;;5044881;28;19932;-96
2022/01/07 12:19:02;;;;;;;;;;;;;;;;;;5046681;28;19933;-93
2022/01/07 12:21:29;;;;;;;;;;;;;;;;;;5044933;28;19948;-95
2022/01/07 12:23:55;;;;;;;;;;;;;;;;;;5045046;28;19925;-92
2022/01/07 12:26:21;;;;;;;;;;;;;;;;;;5047348;28;19948;-96
2022/01/07 12:28:48;;;;;;;;;;;;;;;;;;5095078;23;19916;-96
2022/01/07 12:31:14;;;;;;;;;;;;;;;;;;5064918;28;19925;-94
2022/01/07 12:33:40;;;;;;;;;;;;;;;;;;5064816;28;19929;-95
2022/01/07 12:36:07;;;;;;;;;;;;;;;;;;5065342;28;19928;-94
2022/01/07 12:38:36;;;;;;;;;;;;;;;;;;5068155;23;19925;-96
2022/01/07 12:41:03;;;;;;;;;;;;;;;;;;5033387;28;19925;-95
2022/01/07 12:43:29;;;;;;;;;;;;;;;;;;5045227;28;20392;-93
2022/01/07 12:45:55;;;;;;;;;;;;;;;;;;5045696;28;20317;-96
2022/01/07 12:48:21;;;;;;;;;;;;;;;;;;5044322;28;19929;-96
2022/01/07 12:50:48;;;;;;;;;;;;;;;;;;5039821;28;19925;-96
2022/01/07 12:53:14;;;;;;;;;;;;;;;;;;5037254;28;19929;-94
2022/01/07 12:55:40;;;;;;;;;;;;;;;;;;5040053;28;19925;-94
2022/01/07 12:58:08;;;;;;;;;;;;;;;;;;5049200;28;19925;-94
2022/01/07 13:00:34;;;;;;;;;;;;;;;;;;5031584;28;19926;-94
2022/01/07 13:03:00;;;;;;;;;;;;;;;;;;5040522;28;19971;-94
2022/01/07 13:05:27;;;;;;;;;;;;;;;;;;5044672;28;19979;-94
2022/01/07 13:07:53;;;;;;;;;;;;;;;;;;5044848;28;19924;-93
2022/01/07 13:10:20;;;;;;;;;;;;;;;;;;5038130;28;19925;-96
2022/01/07 13:12:47;;;;;;;;;;;;;;;;;;5043126;28;19931;-94
2022/01/07 13:15:13;;;;;;;;;;;;;;;;;;5041899;28;19951;-95
2022/01/07 13:17:39;;;;;;;;;;;;;;;;;;5036476;28;19925;-94
2022/01/07 13:20:06;;;;;;;;;;;;;;;;;;5038438;28;19948;-94
2022/01/07 13:22:32;;;;;;;;;;;;;;;;;;5039174;28;19952;-94
2022/01/07 13:24:58;;;;;;;;;;;;;;;;;;5039521;28;19925;-93
2022/01/07 13:27:24;;;;;;;;;;;;;;;;;;5039219;28;19956;-94
2022/01/07 13:29:51;;;;;;;;;;;;;;;;;;5039906;28;19925;-95
2022/01/07 13:32:17;;;;;;;;;;;;;;;;;;5044612;28;19929;-95
2022/01/07 13:34:44;;;;;;;;;;;;;;;;;;5044945;28;19925;-94
2022/01/07 13:37:10;;;;;;;;;;;;;;;;;;5044292;28;19925;-95
2022/01/07 13:39:36;;;;;;;;;;;;;;;;;;5030162;28;20455;-96
2022/01/07 13:42:03;;;;;;;;;;;;;;;;;;5022224;28;20389;-96
2022/01/07 13:44:29;;;;;;;;;;;;;;;;;;5041068;28;19945;-94
2022/01/07 13:46:56;;;;;;;;;;;;;;;;;;5043619;28;19929;-94
2022/01/07 13:49:22;;;;;;;;;;;;;;;;;;5044473;28;19929;-92
2022/01/07 13:51:48;;;;;;;;;;;;;;;;;;5043861;28;19956;-95
2022/01/07 13:54:14;;;;;;;;;;;;;;;;;;5043863;28;19928;-94
2022/01/07 13:56:40;;;;;;;;;;;;;;;;;;5043664;28;19952;-95
2022/01/07 13:59:08;;;;;;;;;;;;;;;;;;5042487;28;19968;-95
2022/01/07 14:01:34;;;;;;;;;;;;;;;;;;5039649;28;20061;-94
2022/01/07 14:04:00;;;;;;;;;;;;;;;;;;5039132;28;19925;-95
2022/01/07 14:06:26;;;;;;;;;;;;;;;;;;5038323;28;19952;-95
2022/01/07 14:08:53;;;;;;;;;;;;;;;;;;5031621;28;19926;-94
2022/01/07 14:11:19;;;;;;;;;;;;;;;;;;5018561;28;20491;-96
2022/01/07 14:13:45;;;;;;;;;;;;;;;;;;5028532;28;19991;-95
2022/01/07 14:16:12;;;;;;;;;;;;;;;;;;5029390;28;19999;-95
2022/01/07 14:18:38;;;;;;;;;;;;;;;;;;5040124;28;19925;-95
2022/01/07 14:21:04;;;;;;;;;;;;;;;;;;5042521;28;20328;-95
2022/01/07 14:23:31;;;;;;;;;;;;;;;;;;5038269;28;19925;-95
2022/01/07 14:25:57;;;;;;;;;;;;;;;;;;5021446;28;19948;-96
2022/01/07 14:28:23;;;;;;;;;;;;;;;;;;5027084;28;19925;-95
2022/01/07 14:30:49;;;;;;;;;;;;;;;;;;5040665;28;19925;-95
2022/01/07 14:33:17;;;;;;;;;;;;;;;;;;5031178;28;21607;-95
2022/01/07 14:35:44;;;;;;;;;;;;;;;;;;5038218;28;19925;-94
2022/01/07 14:38:11;;;;;;;;;;;;;;;;;;5038912;28;19925;-96
2022/01/07 14:40:38;;;;;;;;;;;;;;;;;;5037552;28;19933;-94
2022/01/07 14:43:04;;;;;;;;;;;;;;;;;;5037322;28;20419;-94
2022/01/07 14:45:30;;;;;;;;;;;;;;;;;;5037766;28;19929;-93
2022/01/07 14:47:57;;;;;;;;;;;;;;;;;;5042298;28;19925;-95
2022/01/07 14:50:23;;;;;;;;;;;;;;;;;;5043264;28;19933;-96
2022/01/07 14:52:49;;;;;;;;;;;;;;;;;;5031951;28;19925;-93
2022/01/07 14:55:16;;;;;;;;;;;;;;;;;;5041674;28;19979;-95
2022/01/07 14:57:42;;;;;;;;;;;;;;;;;;5043269;28;19929;-93
2022/01/07 15:00:08;;;;;;;;;;;;;;;;;;5042852;28;19975;-93
2022/01/07 15:02:34;;;;;;;;;;;;;;;;;;5042921;28;19929;-92
2022/01/07 15:05:01;;;;;;;;;;;;;;;;;;5041584;28;19924;-96
2022/01/07 15:07:27;;;;;;;;;;;;;;;;;;5041069;28;19925;-96
2022/01/07 15:09:53;;;;;;;;;;;;;;;;;;5027289;28;19925;-96
2022/01/07 15:12:19;;;;;;;;;;;;;;;;;;5023374;28;19948;-95
2022/01/07 15:14:45;;;;;;;;;;;;;;;;;;5037588;28;19925;-95
2022/01/07 15:17:12;;;;;;;;;;;;;;;;;;5043150;28;19929;-96
2022/01/07 15:19:38;;;;;;;;;;;;;;;;;;5039939;28;20020;-93
2022/01/07 15:22:04;;;;;;;;;;;;;;;;;;5040108;28;19948;-93
2022/01/07 15:24:30;;;;;;;;;;;;;;;;;;5029930;28;19925;-94
2022/01/07 15:26:57;;;;;;;;;;;;;;;;;;5022147;28;19925;-93
2022/01/07 15:29:23;;;;;;;;;;;;;;;;;;5031697;28;19948;-94
2022/01/07 15:31:49;;;;;;;;;;;;;;;;;;5040570;28;19925;-94
2022/01/07 15:34:16;;;;;;;;;;;;;;;;;;5041332;28;19925;-96
2022/01/07 15:36:43;;;;;;;;;;;;;;;;;;5042460;28;19925;-94
2022/01/07 15:39:09;;;;;;;;;;;;;;;;;;5039612;28;19925;-92
2022/01/07 15:41:35;;;;;;;;;;;;;;;;;;5042232;28;19925;-92
2022/01/07 15:44:01;;;;;;;;;;;;;;;;;;5041451;28;19925;-92
2022/01/07 15:46:28;;;;;;;;;;;;;;;;;;5041178;28;19948;-92
2022/01/07 15:48:54;;;;;;;;;;;;;;;;;;5042008;28;19925;-95
2022/01/07 15:51:20;;;;;;;;;;;;;;;;;;5040836;28;19948;-94
2022/01/07 15:53:46;;;;;;;;;;;;;;;;;;5039079;28;20321;-94
2022/01/07 15:56:13;;;;;;;;;;;;;;;;;;5042385;28;19937;-93
2022/01/07 15:58:39;;;;;;;;;;;;;;;;;;5042053;28;19925;-94
2022/01/07 16:01:08;;;;;;;;;;;;;;;;;;5039737;28;19925;-94
2022/01/07 16:03:34;;;;;;;;;;;;;;;;;;5041394;28;19929;-93
2022/01/07 16:06:00;;;;;;;;;;;;;;;;;;5045112;28;19979;-94
2022/01/07 16:08:29;;;;;;;;;;;;;;;;;;5040991;28;19929;-93
2022/01/07 16:10:55;;;;;;;;;;;;;;;;;;5043028;28;19935;-95
2022/01/07 16:13:21;;;;;;;;;;;;;;;;;;5044220;28;19925;-96
2022/01/07 16:15:48;;;;;;;;;;;;;;;;;;5044754;28;19925;-95
2022/01/07 16:18:14;;;;;;;;;;;;;;;;;;5060111;23;19909;-96
2022/01/07 16:20:40;;;;;;;;;;;;;;;;;;5064186;28;19960;-96
2022/01/07 16:23:07;;;;;;;;;;;;;;;;;;5043727;28;19925;-96
2022/01/07 16:25:33;;;;;;;;;;;;;;;;;;5048488;28;19936;-96
2022/01/07 16:27:59;;;;;;;;;;;;;;;;;;5044184;28;19925;-96
2022/01/07 16:30:26;;;;;;;;;;;;;;;;;;5060354;28;19975;-96
2022/01/07 16:32:52;;;;;;;;;;;;;;;;;;5065377;28;19959;-96
2022/01/07 16:35:18;;;;;;;;;;;;;;;;;;5065119;28;19936;-95
2022/01/07 16:37:45;;;;;;;;;;;;;;;;;;5064676;28;20539;-95
2022/01/07 16:40:13;;;;;;;;;;;;;;;;;;5060706;28;19952;-93
2022/01/07 16:42:39;;;;;;;;;;;;;;;;;;5063156;28;19978;-92
2022/01/07 16:45:05;;;;;;;;;;;;;;;;;;5064524;28;19932;-92
2022/01/07 16:47:32;;;;;;;;;;;;;;;;;;5064345;28;19924;-92
2022/01/07 16:49:58;;;;;;;;;;;;;;;;;;5060133;28;19925;-92